sensor_id;sensor_type;location;lat;lon;timestamp;pressure;altitude;pressure_sealevel;temperature;humidity
65832;BME280;52593;42.648;23.332;2023-05-24T00:02:18;94373.34;;;11.31;88.10
65832;BME280;52593;42.648;23.332;2023-05-24T00:04:44;94370.00;;;11.22;88.14
65832;BME280;52593;42.648;23.332;2023-05-24T00:07:09;94372.66;;;11.22;89.00
65832;BME280;52593;42.648;23.332;2023-05-24T00:09:35;94365.88;;;11.27;88.73
65832;BME280;52593;42.648;23.332;2023-05-24T00:12:00;94376.41;;;11.28;88.34
65832;BME280;52593;42.648;23.332;2023-05-24T00:14:26;94372.66;;;11.22;88.28
65832;BME280;52593;42.648;23.332;2023-05-24T00:16:51;94372.91;;;11.28;88.22
65832;BME280;52593;42.648;23.332;2023-05-24T00:19:17;94370.19;;;11.21;88.09
65832;BME280;52593;42.648;23.332;2023-05-24T00:21:46;94373.78;;;11.13;88.64
65832;BME280;52593;42.648;23.332;2023-05-24T00:24:12;94366.53;;;11.07;88.67
65832;BME280;52593;42.648;23.332;2023-05-24T00:26:37;94369.16;;;11.00;88.12
65832;BME280;52593;42.648;23.332;2023-05-24T00:29:02;94366.78;;;10.91;88.72
65832;BME280;52593;42.648;23.332;2023-05-24T00:31:28;94370.41;;;10.83;89.23
65832;BME280;52593;42.648;23.332;2023-05-24T00:33:53;94368.38;;;10.85;89.70
65832;BME280;52593;42.648;23.332;2023-05-24T00:36:19;94369.56;;;10.82;89.77
65832;BME280;52593;42.648;23.332;2023-05-24T00:38:44;94367.75;;;10.83;89.54
65832;BME280;52593;42.648;23.332;2023-05-24T00:41:09;94368.13;;;10.80;90.10
65832;BME280;52593;42.648;23.332;2023-05-24T00:43:35;94360.09;;;10.80;90.15
65832;BME280;52593;42.648;23.332;2023-05-24T00:46:14;94367.22;;;10.73;90.50
65832;BME280;52593;42.648;23.332;2023-05-24T00:48:41;94359.88;;;10.60;90.95
65832;BME280;52593;42.648;23.332;2023-05-24T00:51:07;94359.88;;;10.60;91.47
65832;BME280;52593;42.648;23.332;2023-05-24T00:53:32;94358.00;;;10.60;91.99
65832;BME280;52593;42.648;23.332;2023-05-24T00:55:59;94367.16;;;10.66;91.71
65832;BME280;52593;42.648;23.332;2023-05-24T00:58:27;94364.66;;;10.64;91.58
65832;BME280;52593;42.648;23.332;2023-05-24T01:00:58;94362.75;;;10.58;91.86
65832;BME280;52593;42.648;23.332;2023-05-24T01:03:24;94366.50;;;10.49;92.03
65832;BME280;52593;42.648;23.332;2023-05-24T01:05:54;94365.69;;;10.48;92.12
65832;BME280;52593;42.648;23.332;2023-05-24T01:11:25;94358.66;;;10.47;91.62
65832;BME280;52593;42.648;23.332;2023-05-24T01:14:19;94368.00;;;10.37;91.86
65832;BME280;52593;42.648;23.332;2023-05-24T01:16:55;94361.03;;;10.35;91.79
65832;BME280;52593;42.648;23.332;2023-05-24T01:24:58;94374.03;;;10.39;91.55
65832;BME280;52593;42.648;23.332;2023-05-24T01:27:28;94379.75;;;10.35;91.17
65832;BME280;52593;42.648;23.332;2023-05-24T01:29:55;94372.78;;;10.41;91.65
65832;BME280;52593;42.648;23.332;2023-05-24T01:32:21;94377.50;;;10.39;91.27
65832;BME280;52593;42.648;23.332;2023-05-24T01:34:46;94378.06;;;10.34;91.76
65832;BME280;52593;42.648;23.332;2023-05-24T01:37:12;94386.09;;;10.34;91.97
65832;BME280;52593;42.648;23.332;2023-05-24T01:39:37;94377.59;;;10.31;92.32
65832;BME280;52593;42.648;23.332;2023-05-24T01:44:45;94388.38;;;10.23;92.85
65832;BME280;52593;42.648;23.332;2023-05-24T01:49:58;94383.31;;;10.13;94.18
65832;BME280;52593;42.648;23.332;2023-05-24T01:52:28;94380.75;;;10.05;94.25
65832;BME280;52593;42.648;23.332;2023-05-24T01:54:56;94372.53;;;10.06;94.34
65832;BME280;52593;42.648;23.332;2023-05-24T01:57:23;94369.19;;;10.04;94.25
65832;BME280;52593;42.648;23.332;2023-05-24T01:59:49;94375.22;;;10.06;93.89
65832;BME280;52593;42.648;23.332;2023-05-24T02:02:15;94373.91;;;10.02;93.44
65832;BME280;52593;42.648;23.332;2023-05-24T02:04:41;94368.09;;;10.13;93.54
65832;BME280;52593;42.648;23.332;2023-05-24T02:07:07;94357.22;;;10.15;93.56
65832;BME280;52593;42.648;23.332;2023-05-24T02:09:32;94364.59;;;10.13;93.70
65832;BME280;52593;42.648;23.332;2023-05-24T02:11:58;94369.94;;;10.13;93.82
65832;BME280;52593;42.648;23.332;2023-05-24T02:14:23;94363.78;;;10.12;93.88
65832;BME280;52593;42.648;23.332;2023-05-24T02:16:49;94370.13;;;10.11;93.86
65832;BME280;52593;42.648;23.332;2023-05-24T02:19:15;94364.16;;;10.09;93.79
65832;BME280;52593;42.648;23.332;2023-05-24T02:21:41;94370.88;;;10.05;93.99
65832;BME280;52593;42.648;23.332;2023-05-24T02:24:07;94369.19;;;10.04;94.15
65832;BME280;52593;42.648;23.332;2023-05-24T02:26:35;94363.84;;;10.04;94.44
65832;BME280;52593;42.648;23.332;2023-05-24T02:29:01;94353.09;;;9.97;94.70
65832;BME280;52593;42.648;23.332;2023-05-24T02:31:26;94356.50;;;9.91;94.64
65832;BME280;52593;42.648;23.332;2023-05-24T02:33:55;94355.50;;;9.92;94.55
65832;BME280;52593;42.648;23.332;2023-05-24T02:36:21;94364.16;;;9.94;94.15
65832;BME280;52593;42.648;23.332;2023-05-24T02:38:48;94354.19;;;9.88;94.17
65832;BME280;52593;42.648;23.332;2023-05-24T02:41:13;94352.81;;;9.92;94.36
65832;BME280;52593;42.648;23.332;2023-05-24T02:43:45;94357.50;;;9.90;94.53
65832;BME280;52593;42.648;23.332;2023-05-24T02:46:11;94355.13;;;9.95;94.06
65832;BME280;52593;42.648;23.332;2023-05-24T02:48:37;94355.84;;;9.89;94.00
65832;BME280;52593;42.648;23.332;2023-05-24T02:51:02;94357.41;;;9.84;93.94
65832;BME280;52593;42.648;23.332;2023-05-24T02:53:28;94354.00;;;9.75;94.29
65832;BME280;52593;42.648;23.332;2023-05-24T02:55:54;94356.47;;;9.76;94.36
65832;BME280;52593;42.648;23.332;2023-05-24T02:58:19;94355.00;;;9.74;94.24
65832;BME280;52593;42.648;23.332;2023-05-24T03:00:45;94354.34;;;9.72;94.50
65832;BME280;52593;42.648;23.332;2023-05-24T03:03:11;94360.88;;;9.69;94.96
65832;BME280;52593;42.648;23.332;2023-05-24T03:05:36;94360.88;;;9.69;94.49
65832;BME280;52593;42.648;23.332;2023-05-24T03:08:01;94363.00;;;9.74;93.58
65832;BME280;52593;42.648;23.332;2023-05-24T03:10:27;94364.50;;;9.76;93.15
65832;BME280;52593;42.648;23.332;2023-05-24T03:12:52;94372.16;;;9.79;92.08
65832;BME280;52593;42.648;23.332;2023-05-24T03:15:18;94370.88;;;9.90;92.19
65832;BME280;52593;42.648;23.332;2023-05-24T03:17:43;94367.75;;;10.02;91.86
65832;BME280;52593;42.648;23.332;2023-05-24T03:20:09;94367.09;;;9.99;91.57
65832;BME280;52593;42.648;23.332;2023-05-24T03:22:35;94369.69;;;9.93;92.20
65832;BME280;52593;42.648;23.332;2023-05-24T03:25:01;94366.44;;;9.97;91.71
65832;BME280;52593;42.648;23.332;2023-05-24T03:27:26;94377.88;;;9.91;92.19
65832;BME280;52593;42.648;23.332;2023-05-24T03:29:52;94378.78;;;9.84;92.64
65832;BME280;52593;42.648;23.332;2023-05-24T03:32:17;94387.25;;;9.87;92.99
65832;BME280;52593;42.648;23.332;2023-05-24T03:34:42;94392.44;;;9.89;92.88
65832;BME280;52593;42.648;23.332;2023-05-24T03:37:08;94386.06;;;9.90;93.14
65832;BME280;52593;42.648;23.332;2023-05-24T03:39:33;94380.91;;;9.88;92.75
65832;BME280;52593;42.648;23.332;2023-05-24T03:41:59;94389.19;;;9.93;92.40
65832;BME280;52593;42.648;23.332;2023-05-24T03:44:25;94395.84;;;9.97;92.11
65832;BME280;52593;42.648;23.332;2023-05-24T03:46:50;94393.44;;;10.03;91.87
65832;BME280;52593;42.648;23.332;2023-05-24T03:49:15;94388.75;;;10.05;92.53
65832;BME280;52593;42.648;23.332;2023-05-24T03:51:41;94384.50;;;10.10;92.48
65832;BME280;52593;42.648;23.332;2023-05-24T03:54:06;94388.94;;;10.18;91.73
65832;BME280;52593;42.648;23.332;2023-05-24T03:56:31;94386.25;;;10.18;91.22
65832;BME280;52593;42.648;23.332;2023-05-24T03:58:57;94395.56;;;10.22;90.77
65832;BME280;52593;42.648;23.332;2023-05-24T04:01:24;94384.72;;;10.39;92.13
65832;BME280;52593;42.648;23.332;2023-05-24T04:03:50;94382.94;;;10.46;91.29
65832;BME280;52593;42.648;23.332;2023-05-24T04:06:16;94387.38;;;10.53;91.08
65832;BME280;52593;42.648;23.332;2023-05-24T04:08:42;94391.97;;;10.60;90.63
65832;BME280;52593;42.648;23.332;2023-05-24T04:11:08;94394.38;;;10.55;90.44
65832;BME280;52593;42.648;23.332;2023-05-24T04:13:33;94395.47;;;10.60;90.05
65832;BME280;52593;42.648;23.332;2023-05-24T04:15:59;94399.44;;;10.64;90.21
65832;BME280;52593;42.648;23.332;2023-05-24T04:18:24;94396.00;;;10.70;89.63
65832;BME280;52593;42.648;23.332;2023-05-24T04:20:49;94399.50;;;10.71;89.32
65832;BME280;52593;42.648;23.332;2023-05-24T04:23:15;94400.34;;;10.71;89.12
65832;BME280;52593;42.648;23.332;2023-05-24T04:25:41;94401.44;;;10.77;89.13
65832;BME280;52593;42.648;23.332;2023-05-24T04:28:06;94404.84;;;10.86;89.39
65832;BME280;52593;42.648;23.332;2023-05-24T04:30:32;94398.72;;;10.92;89.80
65832;BME280;52593;42.648;23.332;2023-05-24T04:32:58;94401.81;;;11.11;88.66
65832;BME280;52593;42.648;23.332;2023-05-24T04:35:24;94399.06;;;11.26;88.05
65832;BME280;52593;42.648;23.332;2023-05-24T04:37:50;94401.38;;;11.29;88.70
65832;BME280;52593;42.648;23.332;2023-05-24T04:40:15;94404.16;;;11.42;87.83
65832;BME280;52593;42.648;23.332;2023-05-24T04:42:41;94403.13;;;11.43;88.54
65832;BME280;52593;42.648;23.332;2023-05-24T04:45:07;94412.31;;;11.55;87.90
65832;BME280;52593;42.648;23.332;2023-05-24T04:47:33;94418.09;;;11.59;87.48
65832;BME280;52593;42.648;23.332;2023-05-24T04:49:58;94419.16;;;11.58;87.70
65832;BME280;52593;42.648;23.332;2023-05-24T04:52:23;94420.97;;;11.57;87.86
65832;BME280;52593;42.648;23.332;2023-05-24T04:54:49;94425.31;;;11.58;87.97
65832;BME280;52593;42.648;23.332;2023-05-24T04:57:15;94418.75;;;11.61;88.32
65832;BME280;52593;42.648;23.332;2023-05-24T04:59:41;94430.28;;;11.62;88.06
65832;BME280;52593;42.648;23.332;2023-05-24T05:02:07;94419.34;;;11.85;87.37
65832;BME280;52593;42.648;23.332;2023-05-24T05:04:32;94420.31;;;11.99;86.46
65832;BME280;52593;42.648;23.332;2023-05-24T05:06:57;94428.53;;;11.97;86.86
65832;BME280;52593;42.648;23.332;2023-05-24T05:09:23;94421.16;;;11.99;85.44
65832;BME280;52593;42.648;23.332;2023-05-24T05:11:49;94420.50;;;12.25;83.60
65832;BME280;52593;42.648;23.332;2023-05-24T05:14:14;94423.19;;;12.25;83.95
65832;BME280;52593;42.648;23.332;2023-05-24T05:16:41;94421.53;;;12.31;84.24
65832;BME280;52593;42.648;23.332;2023-05-24T05:19:06;94424.44;;;12.29;83.43
65832;BME280;52593;42.648;23.332;2023-05-24T05:21:32;94428.19;;;12.35;83.22
65832;BME280;52593;42.648;23.332;2023-05-24T05:23:59;94428.94;;;12.57;82.14
65832;BME280;52593;42.648;23.332;2023-05-24T05:26:28;94422.53;;;12.58;82.21
65832;BME280;52593;42.648;23.332;2023-05-24T05:28:54;94425.69;;;12.75;81.85
65832;BME280;52593;42.648;23.332;2023-05-24T05:31:20;94433.00;;;12.88;80.03
65832;BME280;52593;42.648;23.332;2023-05-24T05:33:46;94430.31;;;12.88;80.46
65832;BME280;52593;42.648;23.332;2023-05-24T05:36:11;94440.06;;;12.96;79.34
65832;BME280;52593;42.648;23.332;2023-05-24T05:38:36;94439.25;;;13.09;78.50
65832;BME280;52593;42.648;23.332;2023-05-24T05:41:02;94443.97;;;13.00;78.73
65832;BME280;52593;42.648;23.332;2023-05-24T05:43:27;94429.72;;;12.99;79.22
65832;BME280;52593;42.648;23.332;2023-05-24T05:45:54;94436.78;;;13.14;78.33
65832;BME280;52593;42.648;23.332;2023-05-24T05:48:19;94443.84;;;13.22;78.43
65832;BME280;52593;42.648;23.332;2023-05-24T05:50:45;94432.06;;;13.16;79.03
65832;BME280;52593;42.648;23.332;2023-05-24T05:53:10;94439.50;;;13.20;78.61
65832;BME280;52593;42.648;23.332;2023-05-24T05:55:35;94429.38;;;13.23;76.89
65832;BME280;52593;42.648;23.332;2023-05-24T05:58:01;94437.03;;;13.19;77.18
65832;BME280;52593;42.648;23.332;2023-05-24T06:00:26;94438.50;;;13.22;78.22
65832;BME280;52593;42.648;23.332;2023-05-24T06:02:51;94444.28;;;13.25;77.87
65832;BME280;52593;42.648;23.332;2023-05-24T06:05:18;94443.94;;;13.42;77.45
65832;BME280;52593;42.648;23.332;2023-05-24T06:07:43;94445.81;;;13.54;76.67
65832;BME280;52593;42.648;23.332;2023-05-24T06:10:10;94443.56;;;13.65;75.40
65832;BME280;52593;42.648;23.332;2023-05-24T06:12:35;94444.16;;;13.73;75.79
65832;BME280;52593;42.648;23.332;2023-05-24T06:15:02;94445.66;;;14.03;73.28
65832;BME280;52593;42.648;23.332;2023-05-24T06:17:29;94450.59;;;14.26;72.48
65832;BME280;52593;42.648;23.332;2023-05-24T06:19:54;94450.78;;;14.18;71.60
65832;BME280;52593;42.648;23.332;2023-05-24T06:22:20;94454.97;;;14.14;72.87
65832;BME280;52593;42.648;23.332;2023-05-24T06:24:46;94458.66;;;14.13;73.54
65832;BME280;52593;42.648;23.332;2023-05-24T06:27:11;94450.19;;;14.29;73.04
65832;BME280;52593;42.648;23.332;2023-05-24T06:29:37;94452.81;;;14.56;69.65
65832;BME280;52593;42.648;23.332;2023-05-24T06:32:02;94445.13;;;14.73;69.36
65832;BME280;52593;42.648;23.332;2023-05-24T06:34:28;94444.91;;;14.74;68.09
65832;BME280;52593;42.648;23.332;2023-05-24T06:36:54;94444.94;;;14.68;68.68
65832;BME280;52593;42.648;23.332;2023-05-24T06:39:19;94444.06;;;14.80;69.18
65832;BME280;52593;42.648;23.332;2023-05-24T06:41:45;94438.81;;;14.99;68.87
65832;BME280;52593;42.648;23.332;2023-05-24T06:44:11;94433.94;;;15.28;67.16
65832;BME280;52593;42.648;23.332;2023-05-24T06:46:36;94431.66;;;15.31;67.41
65832;BME280;52593;42.648;23.332;2023-05-24T06:49:02;94427.56;;;15.54;65.50
65832;BME280;52593;42.648;23.332;2023-05-24T06:51:28;94432.28;;;15.59;64.63
65832;BME280;52593;42.648;23.332;2023-05-24T06:53:53;94437.59;;;15.72;65.50
65832;BME280;52593;42.648;23.332;2023-05-24T06:56:19;94433.19;;;15.84;65.24
65832;BME280;52593;42.648;23.332;2023-05-24T06:58:44;94427.56;;;15.86;63.37
65832;BME280;52593;42.648;23.332;2023-05-24T07:01:10;94433.41;;;15.83;64.01
65832;BME280;52593;42.648;23.332;2023-05-24T07:03:35;94432.38;;;15.84;64.96
65832;BME280;52593;42.648;23.332;2023-05-24T07:06:01;94427.56;;;15.86;65.09
65832;BME280;52593;42.648;23.332;2023-05-24T07:08:27;94427.09;;;16.21;61.94
65832;BME280;52593;42.648;23.332;2023-05-24T07:10:53;94419.13;;;16.26;62.19
65832;BME280;52593;42.648;23.332;2023-05-24T07:13:19;94427.97;;;16.15;63.55
65832;BME280;52593;42.648;23.332;2023-05-24T07:15:45;94429.88;;;16.08;64.90
65832;BME280;52593;42.648;23.332;2023-05-24T07:18:11;94429.50;;;16.29;64.89
65832;BME280;52593;42.648;23.332;2023-05-24T07:20:37;94424.56;;;16.45;64.16
65832;BME280;52593;42.648;23.332;2023-05-24T07:23:02;94429.69;;;16.53;64.33
65832;BME280;52593;42.648;23.332;2023-05-24T07:25:29;94430.91;;;16.57;63.46
65832;BME280;52593;42.648;23.332;2023-05-24T07:27:54;94436.91;;;16.77;63.19
65832;BME280;52593;42.648;23.332;2023-05-24T07:30:20;94436.59;;;16.67;62.91
65832;BME280;52593;42.648;23.332;2023-05-24T07:32:46;94437.72;;;16.78;63.73
65832;BME280;52593;42.648;23.332;2023-05-24T07:35:11;94435.59;;;16.87;61.64
65832;BME280;52593;42.648;23.332;2023-05-24T07:37:38;94438.44;;;16.92;63.65
65832;BME280;52593;42.648;23.332;2023-05-24T07:40:04;94441.75;;;16.94;62.54
65832;BME280;52593;42.648;23.332;2023-05-24T07:42:30;94432.59;;;17.14;63.54
65832;BME280;52593;42.648;23.332;2023-05-24T07:44:56;94438.31;;;17.36;62.58
65832;BME280;52593;42.648;23.332;2023-05-24T07:47:21;94438.09;;;17.37;63.17
65832;BME280;52593;42.648;23.332;2023-05-24T07:49:47;94430.53;;;17.58;62.21
65832;BME280;52593;42.648;23.332;2023-05-24T07:52:12;94433.41;;;17.75;60.63
65832;BME280;52593;42.648;23.332;2023-05-24T07:54:38;94431.59;;;17.99;59.83
65832;BME280;52593;42.648;23.332;2023-05-24T07:57:04;94429.16;;;18.09;58.86
65832;BME280;52593;42.648;23.332;2023-05-24T07:59:30;94429.75;;;18.11;58.10
65832;BME280;52593;42.648;23.332;2023-05-24T08:01:55;94435.06;;;18.18;57.28
65832;BME280;52593;42.648;23.332;2023-05-24T08:04:25;94433.53;;;18.34;55.14
65832;BME280;52593;42.648;23.332;2023-05-24T08:06:51;94429.78;;;18.35;55.82
65832;BME280;52593;42.648;23.332;2023-05-24T08:09:16;94419.41;;;18.56;55.45
65832;BME280;52593;42.648;23.332;2023-05-24T08:11:41;94430.72;;;18.41;55.85
65832;BME280;52593;42.648;23.332;2023-05-24T08:14:07;94433.44;;;18.29;55.08
65832;BME280;52593;42.648;23.332;2023-05-24T08:16:32;94434.59;;;18.45;54.70
65832;BME280;52593;42.648;23.332;2023-05-24T08:18:57;94414.56;;;18.69;53.14
65832;BME280;52593;42.648;23.332;2023-05-24T08:21:23;94420.69;;;18.77;54.64
65832;BME280;52593;42.648;23.332;2023-05-24T08:23:48;94413.25;;;18.96;51.59
65832;BME280;52593;42.648;23.332;2023-05-24T08:26:14;94417.84;;;18.95;51.46
65832;BME280;52593;42.648;23.332;2023-05-24T08:28:43;94417.25;;;19.05;50.75
65832;BME280;52593;42.648;23.332;2023-05-24T08:31:08;94413.94;;;19.15;49.20
65832;BME280;52593;42.648;23.332;2023-05-24T08:33:33;94417.56;;;19.20;48.66
65832;BME280;52593;42.648;23.332;2023-05-24T08:35:59;94421.16;;;19.38;48.45
65832;BME280;52593;42.648;23.332;2023-05-24T08:38:24;94414.78;;;19.44;49.28
65832;BME280;52593;42.648;23.332;2023-05-24T08:40:50;94421.66;;;19.64;48.21
65832;BME280;52593;42.648;23.332;2023-05-24T08:43:15;94418.03;;;19.87;44.87
65832;BME280;52593;42.648;23.332;2023-05-24T08:45:41;94414.34;;;20.10;44.57
65832;BME280;52593;42.648;23.332;2023-05-24T08:48:07;94414.09;;;20.28;43.92
65832;BME280;52593;42.648;23.332;2023-05-24T08:50:33;94410.81;;;20.26;43.78
65832;BME280;52593;42.648;23.332;2023-05-24T08:53:00;94410.31;;;20.12;43.43
65832;BME280;52593;42.648;23.332;2023-05-24T08:55:31;94413.19;;;20.23;42.92
65832;BME280;52593;42.648;23.332;2023-05-24T08:57:58;94410.06;;;20.31;42.54
65832;BME280;52593;42.648;23.332;2023-05-24T09:00:24;94413.03;;;20.29;41.33
65832;BME280;52593;42.648;23.332;2023-05-24T09:02:50;94411.59;;;20.44;43.15
65832;BME280;52593;42.648;23.332;2023-05-24T09:05:16;94406.09;;;20.56;43.09
65832;BME280;52593;42.648;23.332;2023-05-24T09:07:47;94413.09;;;20.69;42.00
65832;BME280;52593;42.648;23.332;2023-05-24T09:10:13;94409.31;;;20.92;42.84
65832;BME280;52593;42.648;23.332;2023-05-24T09:12:43;94415.34;;;21.16;42.90
65832;BME280;52593;42.648;23.332;2023-05-24T09:15:09;94403.78;;;21.26;42.13
65832;BME280;52593;42.648;23.332;2023-05-24T09:17:36;94400.81;;;21.27;40.56
65832;BME280;52593;42.648;23.332;2023-05-24T09:20:02;94403.34;;;21.12;39.23
65832;BME280;52593;42.648;23.332;2023-05-24T09:22:31;94402.38;;;21.23;38.56
65832;BME280;52593;42.648;23.332;2023-05-24T09:25:01;94411.44;;;21.07;38.01
65832;BME280;52593;42.648;23.332;2023-05-24T09:27:26;94412.38;;;21.17;38.46
65832;BME280;52593;42.648;23.332;2023-05-24T09:29:54;94409.28;;;21.31;37.81
65832;BME280;52593;42.648;23.332;2023-05-24T09:32:21;94411.03;;;21.42;38.87
65832;BME280;52593;42.648;23.332;2023-05-24T09:34:50;94411.56;;;21.61;38.67
65832;BME280;52593;42.648;23.332;2023-05-24T09:37:17;94400.47;;;21.68;38.66
65832;BME280;52593;42.648;23.332;2023-05-24T09:39:43;94406.03;;;21.78;36.73
65832;BME280;52593;42.648;23.332;2023-05-24T09:42:25;94392.19;;;21.85;38.69
65832;BME280;52593;42.648;23.332;2023-05-24T09:45:07;94396.59;;;21.91;37.80
65832;BME280;52593;42.648;23.332;2023-05-24T09:47:38;94398.13;;;22.09;35.50
65832;BME280;52593;42.648;23.332;2023-05-24T09:50:12;94397.53;;;22.34;36.62
65832;BME280;52593;42.648;23.332;2023-05-24T09:52:38;94397.63;;;22.44;37.04
65832;BME280;52593;42.648;23.332;2023-05-24T09:55:18;94395.59;;;22.67;36.32
65832;BME280;52593;42.648;23.332;2023-05-24T09:57:59;94396.13;;;22.64;37.15
65832;BME280;52593;42.648;23.332;2023-05-24T10:00:26;94391.81;;;22.73;36.77
65832;BME280;52593;42.648;23.332;2023-05-24T10:03:03;94386.44;;;22.89;35.54
65832;BME280;52593;42.648;23.332;2023-05-24T10:05:29;94387.41;;;23.10;34.38
65832;BME280;52593;42.648;23.332;2023-05-24T10:07:56;94389.38;;;23.30;34.93
65832;BME280;52593;42.648;23.332;2023-05-24T10:10:22;94385.78;;;23.14;32.53
65832;BME280;52593;42.648;23.332;2023-05-24T10:12:48;94389.88;;;23.17;34.75
65832;BME280;52593;42.648;23.332;2023-05-24T10:15:14;94383.88;;;23.09;31.94
65832;BME280;52593;42.648;23.332;2023-05-24T10:17:39;94385.31;;;23.38;33.83
65832;BME280;52593;42.648;23.332;2023-05-24T10:20:05;94389.19;;;23.47;33.92
65832;BME280;52593;42.648;23.332;2023-05-24T10:22:34;94377.75;;;23.65;33.07
65832;BME280;52593;42.648;23.332;2023-05-24T10:25:03;94383.03;;;23.88;32.86
65832;BME280;52593;42.648;23.332;2023-05-24T10:27:30;94380.84;;;23.95;30.96
65832;BME280;52593;42.648;23.332;2023-05-24T10:32:31;94377.78;;;23.71;31.22
65832;BME280;52593;42.648;23.332;2023-05-24T10:34:58;94373.72;;;23.89;31.95
65832;BME280;52593;42.648;23.332;2023-05-24T10:37:24;94367.47;;;24.14;31.36
65832;BME280;52593;42.648;23.332;2023-05-24T10:39:54;94375.09;;;24.27;33.26
65832;BME280;52593;42.648;23.332;2023-05-24T10:42:19;94358.44;;;24.39;31.79
65832;BME280;52593;42.648;23.332;2023-05-24T10:44:45;94366.34;;;24.56;32.28
65832;BME280;52593;42.648;23.332;2023-05-24T10:47:12;94357.59;;;24.44;31.72
65832;BME280;52593;42.648;23.332;2023-05-24T10:52:36;94361.44;;;24.48;31.34
65832;BME280;52593;42.648;23.332;2023-05-24T10:55:08;94352.41;;;24.52;30.83
65832;BME280;52593;42.648;23.332;2023-05-24T10:57:35;94354.59;;;24.45;31.41
65832;BME280;52593;42.648;23.332;2023-05-24T11:02:48;94343.09;;;24.69;29.08
65832;BME280;52593;42.648;23.332;2023-05-24T11:05:14;94351.28;;;24.84;31.20
65832;BME280;52593;42.648;23.332;2023-05-24T11:07:41;94336.47;;;24.85;31.57
65832;BME280;52593;42.648;23.332;2023-05-24T11:10:16;94346.38;;;24.71;30.36
65832;BME280;52593;42.648;23.332;2023-05-24T11:12:42;94341.75;;;24.51;29.30
65832;BME280;52593;42.648;23.332;2023-05-24T11:15:09;94342.03;;;24.34;28.90
65832;BME280;52593;42.648;23.332;2023-05-24T11:20:33;94332.94;;;24.85;31.55
65832;BME280;52593;42.648;23.332;2023-05-24T11:23:02;94332.13;;;24.79;29.85
65832;BME280;52593;42.648;23.332;2023-05-24T11:25:28;94340.81;;;25.07;30.19
65832;BME280;52593;42.648;23.332;2023-05-24T11:27:57;94337.69;;;25.34;29.10
65832;BME280;52593;42.648;23.332;2023-05-24T11:30:22;94337.31;;;25.51;30.13
65832;BME280;52593;42.648;23.332;2023-05-24T11:32:48;94337.63;;;25.44;30.58
65832;BME280;52593;42.648;23.332;2023-05-24T11:35:14;94333.03;;;25.35;29.50
65832;BME280;52593;42.648;23.332;2023-05-24T11:37:40;94326.53;;;25.70;29.89
65832;BME280;52593;42.648;23.332;2023-05-24T11:40:07;94329.50;;;25.79;30.36
65832;BME280;52593;42.648;23.332;2023-05-24T11:42:34;94333.09;;;25.74;30.24
65832;BME280;52593;42.648;23.332;2023-05-24T11:45:03;94323.56;;;25.61;30.04
65832;BME280;52593;42.648;23.332;2023-05-24T11:47:29;94314.38;;;25.87;29.85
65832;BME280;52593;42.648;23.332;2023-05-24T11:49:54;94318.41;;;25.55;29.32
65832;BME280;52593;42.648;23.332;2023-05-24T11:52:20;94311.00;;;25.55;29.90
65832;BME280;52593;42.648;23.332;2023-05-24T11:54:46;94314.59;;;25.90;31.81
65832;BME280;52593;42.648;23.332;2023-05-24T11:57:12;94312.78;;;26.15;30.37
65832;BME280;52593;42.648;23.332;2023-05-24T11:59:40;94303.78;;;26.09;30.01
65832;BME280;52593;42.648;23.332;2023-05-24T12:02:06;94307.31;;;26.44;29.68
65832;BME280;52593;42.648;23.332;2023-05-24T12:04:33;94307.16;;;26.30;29.23
65832;BME280;52593;42.648;23.332;2023-05-24T12:06:59;94310.97;;;26.05;30.67
65832;BME280;52593;42.648;23.332;2023-05-24T12:09:25;94308.25;;;25.95;28.83
65832;BME280;52593;42.648;23.332;2023-05-24T12:11:51;94305.97;;;25.73;28.59
65832;BME280;52593;42.648;23.332;2023-05-24T12:14:25;94309.22;;;25.75;29.26
65832;BME280;52593;42.648;23.332;2023-05-24T12:16:54;94300.94;;;25.85;28.91
65832;BME280;52593;42.648;23.332;2023-05-24T12:19:23;94301.81;;;26.15;30.99
65832;BME280;52593;42.648;23.332;2023-05-24T12:21:57;94292.25;;;26.42;29.33
65832;BME280;52593;42.648;23.332;2023-05-24T12:24:23;94291.25;;;26.57;28.76
65832;BME280;52593;42.648;23.332;2023-05-24T12:26:49;94286.00;;;26.90;28.82
65832;BME280;52593;42.648;23.332;2023-05-24T12:29:16;94283.41;;;26.98;27.43
65832;BME280;52593;42.648;23.332;2023-05-24T12:31:43;94275.44;;;26.78;26.77
65832;BME280;52593;42.648;23.332;2023-05-24T12:34:12;94279.34;;;26.42;27.17
65832;BME280;52593;42.648;23.332;2023-05-24T12:36:39;94271.00;;;26.82;27.40
65832;BME280;52593;42.648;23.332;2023-05-24T12:41:42;94277.47;;;26.67;27.51
65832;BME280;52593;42.648;23.332;2023-05-24T12:44:09;94273.19;;;26.80;28.46
65832;BME280;52593;42.648;23.332;2023-05-24T12:46:35;94270.69;;;26.30;28.83
65832;BME280;52593;42.648;23.332;2023-05-24T12:49:00;94270.91;;;25.70;28.75
65832;BME280;52593;42.648;23.332;2023-05-24T12:51:29;94276.00;;;25.81;27.82
65832;BME280;52593;42.648;23.332;2023-05-24T12:53:54;94272.75;;;25.40;29.13
65832;BME280;52593;42.648;23.332;2023-05-24T12:56:19;94278.69;;;25.92;28.57
65832;BME280;52593;42.648;23.332;2023-05-24T12:58:46;94263.78;;;26.86;29.00
65832;BME280;52593;42.648;23.332;2023-05-24T13:01:12;94268.69;;;27.13;28.26
65832;BME280;52593;42.648;23.332;2023-05-24T13:03:37;94260.91;;;27.20;27.82
65832;BME280;52593;42.648;23.332;2023-05-24T13:06:03;94261.00;;;26.91;29.42
65832;BME280;52593;42.648;23.332;2023-05-24T13:08:29;94263.13;;;26.46;29.44
65832;BME280;52593;42.648;23.332;2023-05-24T13:10:54;94264.50;;;26.19;29.57
65832;BME280;52593;42.648;23.332;2023-05-24T13:13:20;94253.56;;;26.92;28.91
65832;BME280;52593;42.648;23.332;2023-05-24T13:15:48;94255.16;;;26.98;28.07